sensor_id;sensor_type;location;lat;lon;timestamp;temperature;humidity
53599;DHT22;39485;45.702;11.364;2022-09-12T06:17:14;18.30;99.90
53599;DHT22;39485;45.702;11.364;2022-09-12T06:19:39;18.40;99.90
53599;DHT22;39485;45.702;11.364;2022-09-12T06:22:05;18.40;99.90
53599;DHT22;39485;45.702;11.364;2022-09-12T06:24:30;18.50;99.90
53599;DHT22;39485;45.702;11.364;2022-09-12T06:26:56;18.50;99.90
53599;DHT22;39485;45.702;11.364;2022-09-12T06:29:22;18.70;99.90
53599;DHT22;39485;45.702;11.364;2022-09-12T06:31:47;18.80;99.90
53599;DHT22;39485;45.702;11.364;2022-09-12T06:34:15;18.90;99.90
53599;DHT22;39485;45.702;11.364;2022-09-12T06:36:43;19.00;99.90
53599;DHT22;39485;45.702;11.364;2022-09-12T06:39:18;19.10;99.90
53599;DHT22;39485;45.702;11.364;2022-09-12T06:41:45;19.20;99.90
53599;DHT22;39485;45.702;11.364;2022-09-12T06:44:19;19.30;99.90
53599;DHT22;39485;45.702;11.364;2022-09-12T06:46:45;19.40;99.90
53599;DHT22;39485;45.702;11.364;2022-09-12T06:49:11;19.50;99.90
53599;DHT22;39485;45.702;11.364;2022-09-12T06:51:37;19.60;99.90
53599;DHT22;39485;45.702;11.364;2022-09-12T06:54:04;19.70;99.90
53599;DHT22;39485;45.702;11.364;2022-09-12T06:56:30;19.80;99.90
53599;DHT22;39485;45.702;11.364;2022-09-12T06:58:57;19.90;99.90
53599;DHT22;39485;45.702;11.364;2022-09-12T07:01:28;20.10;99.90
53599;DHT22;39485;45.702;11.364;2022-09-12T07:03:59;20.20;99.90
53599;DHT22;39485;45.702;11.364;2022-09-12T07:06:27;20.30;99.90
53599;DHT22;39485;45.702;11.364;2022-09-12T07:09:00;20.40;99.90
53599;DHT22;39485;45.702;11.364;2022-09-12T07:11:29;20.50;99.90
53599;DHT22;39485;45.702;11.364;2022-09-12T07:13:58;20.60;99.90
53599;DHT22;39485;45.702;11.364;2022-09-12T07:16:24;20.70;99.90
53599;DHT22;39485;45.702;11.364;2022-09-12T07:18:52;20.70;99.90
53599;DHT22;39485;45.702;11.364;2022-09-12T07:21:19;20.80;99.90
53599;DHT22;39485;45.702;11.364;2022-09-12T07:23:45;20.90;99.90
53599;DHT22;39485;45.702;11.364;2022-09-12T07:26:13;20.90;99.90
53599;DHT22;39485;45.702;11.364;2022-09-12T07:28:39;21.10;99.90
53599;DHT22;39485;45.702;11.364;2022-09-12T07:31:08;21.10;99.90
53599;DHT22;39485;45.702;11.364;2022-09-12T07:33:35;21.20;99.90
53599;DHT22;39485;45.702;11.364;2022-09-12T07:36:03;21.30;99.90
53599;DHT22;39485;45.702;11.364;2022-09-12T07:38:29;21.30;99.90
53599;DHT22;39485;45.702;11.364;2022-09-12T07:40:55;21.50;99.90
53599;DHT22;39485;45.702;11.364;2022-09-12T07:43:21;21.50;99.90
53599;DHT22;39485;45.702;11.364;2022-09-12T07:45:47;21.60;99.90
53599;DHT22;39485;45.702;11.364;2022-09-12T07:48:13;21.60;99.90
53599;DHT22;39485;45.702;11.364;2022-09-12T07:50:39;21.60;99.90
53599;DHT22;39485;45.702;11.364;2022-09-12T07:53:05;21.70;99.90
53599;DHT22;39485;45.702;11.364;2022-09-12T07:55:31;21.80;99.90
53599;DHT22;39485;45.702;11.364;2022-09-12T07:57:57;21.90;99.90
53599;DHT22;39485;45.702;11.364;2022-09-12T08:00:23;21.90;99.90
53599;DHT22;39485;45.702;11.364;2022-09-12T08:02:53;22.00;99.90
53599;DHT22;39485;45.702;11.364;2022-09-12T08:05:19;22.10;99.90
53599;DHT22;39485;45.702;11.364;2022-09-12T08:07:47;22.10;99.90
53599;DHT22;39485;45.702;11.364;2022-09-12T08:10:14;22.20;99.90
53599;DHT22;39485;45.702;11.364;2022-09-12T08:12:40;22.30;99.90
53599;DHT22;39485;45.702;11.364;2022-09-12T08:15:06;22.30;99.90
53599;DHT22;39485;45.702;11.364;2022-09-12T08:17:32;22.40;99.90
53599;DHT22;39485;45.702;11.364;2022-09-12T08:19:58;22.40;99.90
53599;DHT22;39485;45.702;11.364;2022-09-12T08:22:24;22.50;99.90
53599;DHT22;39485;45.702;11.364;2022-09-12T08:24:50;22.50;99.90
53599;DHT22;39485;45.702;11.364;2022-09-12T08:27:15;22.60;99.90
53599;DHT22;39485;45.702;11.364;2022-09-12T08:29:41;22.60;99.90
53599;DHT22;39485;45.702;11.364;2022-09-12T08:32:07;22.70;99.90
53599;DHT22;39485;45.702;11.364;2022-09-12T08:34:32;22.70;99.90
53599;DHT22;39485;45.702;11.364;2022-09-12T08:36:58;22.80;99.90
53599;DHT22;39485;45.702;11.364;2022-09-12T08:39:24;22.80;99.90
53599;DHT22;39485;45.702;11.364;2022-09-12T08:42:01;22.80;99.90
53599;DHT22;39485;45.702;11.364;2022-09-12T08:45:15;22.80;99.90
53599;DHT22;39485;45.702;11.364;2022-09-12T08:47:39;22.90;99.90
53599;DHT22;39485;45.702;11.364;2022-09-12T08:55:36;23.00;99.90
53599;DHT22;39485;45.702;11.364;2022-09-12T08:58:22;23.10;99.90
53599;DHT22;39485;45.702;11.364;2022-09-12T09:01:34;23.10;99.90
53599;DHT22;39485;45.702;11.364;2022-09-12T09:07:45;23.10;99.90
53599;DHT22;39485;45.702;11.364;2022-09-12T09:10:17;23.20;99.90
53599;DHT22;39485;45.702;11.364;2022-09-12T09:18:09;23.30;99.90
53599;DHT22;39485;45.702;11.364;2022-09-12T09:20:58;23.30;99.90
53599;DHT22;39485;45.702;11.364;2022-09-12T09:23:30;23.40;99.90
53599;DHT22;39485;45.702;11.364;2022-09-12T09:26:09;23.50;99.90
53599;DHT22;39485;45.702;11.364;2022-09-12T09:28:47;23.50;99.90
53599;DHT22;39485;45.702;11.364;2022-09-12T09:31:21;23.60;99.90
53599;DHT22;39485;45.702;11.364;2022-09-12T09:33:49;23.60;99.80
53599;DHT22;39485;45.702;11.364;2022-09-12T09:39:32;23.80;99.70
53599;DHT22;39485;45.702;11.364;2022-09-12T09:44:57;23.80;99.20
53599;DHT22;39485;45.702;11.364;2022-09-12T09:47:24;23.90;99.30
53599;DHT22;39485;45.702;11.364;2022-09-12T09:49:50;23.90;99.00
53599;DHT22;39485;45.702;11.364;2022-09-12T09:52:19;24.00;99.10
53599;DHT22;39485;45.702;11.364;2022-09-12T09:54:57;24.00;98.90
53599;DHT22;39485;45.702;11.364;2022-09-12T10:05:23;24.10;98.40
53599;DHT22;39485;45.702;11.364;2022-09-12T10:07:49;24.10;98.40
53599;DHT22;39485;45.702;11.364;2022-09-12T10:10:18;24.10;98.30
53599;DHT22;39485;45.702;11.364;2022-09-12T10:12:44;24.10;98.30
53599;DHT22;39485;45.702;11.364;2022-09-12T10:15:18;24.10;98.30
53599;DHT22;39485;45.702;11.364;2022-09-12T10:17:46;24.00;98.40
53599;DHT22;39485;45.702;11.364;2022-09-12T10:20:37;24.00;98.40
53599;DHT22;39485;45.702;11.364;2022-09-12T10:23:32;24.10;98.30
53599;DHT22;39485;45.702;11.364;2022-09-12T10:26:00;24.10;98.20
53599;DHT22;39485;45.702;11.364;2022-09-12T10:28:36;24.20;98.00
53599;DHT22;39485;45.702;11.364;2022-09-12T10:31:05;24.20;98.00
53599;DHT22;39485;45.702;11.364;2022-09-12T10:33:39;24.20;97.90
53599;DHT22;39485;45.702;11.364;2022-09-12T10:36:06;24.30;97.80
53599;DHT22;39485;45.702;11.364;2022-09-12T10:38:32;24.40;97.60
53599;DHT22;39485;45.702;11.364;2022-09-12T10:41:09;24.40;97.30
53599;DHT22;39485;45.702;11.364;2022-09-12T10:43:40;24.40;96.90
53599;DHT22;39485;45.702;11.364;2022-09-12T10:46:20;24.40;97.10
53599;DHT22;39485;45.702;11.364;2022-09-12T10:48:51;24.40;96.90
53599;DHT22;39485;45.702;11.364;2022-09-12T10:51:36;24.40;96.80
53599;DHT22;39485;45.702;11.364;2022-09-12T10:54:03;24.40;96.80
53599;DHT22;39485;45.702;11.364;2022-09-12T10:56:35;24.40;96.70
53599;DHT22;39485;45.702;11.364;2022-09-12T11:01:45;24.40;96.50
53599;DHT22;39485;45.702;11.364;2022-09-12T11:04:20;24.40;96.40
53599;DHT22;39485;45.702;11.364;2022-09-12T11:12:44;24.60;96.50
53599;DHT22;39485;45.702;11.364;2022-09-12T11:23:45;24.90;96.10
53599;DHT22;39485;45.702;11.364;2022-09-12T11:40:49;25.20;95.10
53599;DHT22;39485;45.702;11.364;2022-09-12T11:43:37;25.20;94.80
53599;DHT22;39485;45.702;11.364;2022-09-12T11:46:41;25.20;94.60
53599;DHT22;39485;45.702;11.364;2022-09-12T11:57:24;24.90;94.30
53599;DHT22;39485;45.702;11.364;2022-09-12T12:07:54;25.00;93.70
53599;DHT22;39485;45.702;11.364;2022-09-12T12:10:29;25.10;93.60
53599;DHT22;39485;45.702;11.364;2022-09-12T12:12:56;25.20;93.40
53599;DHT22;39485;45.702;11.364;2022-09-12T12:15:24;25.20;93.10
53599;DHT22;39485;45.702;11.364;2022-09-12T12:18:26;25.30;92.90
53599;DHT22;39485;45.702;11.364;2022-09-12T12:20:53;25.40;92.90
53599;DHT22;39485;45.702;11.364;2022-09-12T12:23:31;25.40;92.70
53599;DHT22;39485;45.702;11.364;2022-09-12T12:26:00;25.50;92.30
53599;DHT22;39485;45.702;11.364;2022-09-12T12:31:09;25.50;92.00
53599;DHT22;39485;45.702;11.364;2022-09-12T12:36:07;25.40;91.60
53599;DHT22;39485;45.702;11.364;2022-09-12T12:38:38;25.50;91.50
53599;DHT22;39485;45.702;11.364;2022-09-12T12:43:53;25.30;91.00
53599;DHT22;39485;45.702;11.364;2022-09-12T12:46:25;25.30;91.10
53599;DHT22;39485;45.702;11.364;2022-09-12T12:48:55;25.40;91.30
53599;DHT22;39485;45.702;11.364;2022-09-12T12:51:32;25.40;91.40
53599;DHT22;39485;45.702;11.364;2022-09-12T12:54:01;25.50;91.40
53599;DHT22;39485;45.702;11.364;2022-09-12T12:56:38;25.50;91.10
53599;DHT22;39485;45.702;11.364;2022-09-12T12:59:14;25.50;90.90
53599;DHT22;39485;45.702;11.364;2022-09-12T13:01:46;25.50;91.10
53599;DHT22;39485;45.702;11.364;2022-09-12T13:04:18;25.50;91.00
53599;DHT22;39485;45.702;11.364;2022-09-12T13:07:03;25.60;90.80
53599;DHT22;39485;45.702;11.364;2022-09-12T13:09:35;25.60;90.70
53599;DHT22;39485;45.702;11.364;2022-09-12T13:12:08;25.60;90.60
53599;DHT22;39485;45.702;11.364;2022-09-12T13:19:53;25.60;90.20
53599;DHT22;39485;45.702;11.364;2022-09-12T13:22:21;25.60;90.20
53599;DHT22;39485;45.702;11.364;2022-09-12T13:24:48;25.70;90.30
53599;DHT22;39485;45.702;11.364;2022-09-12T13:27:25;25.70;90.30
53599;DHT22;39485;45.702;11.364;2022-09-12T13:30:10;25.70;90.10
53599;DHT22;39485;45.702;11.364;2022-09-12T13:32:38;25.60;90.10
53599;DHT22;39485;45.702;11.364;2022-09-12T13:35:18;25.60;90.30
53599;DHT22;39485;45.702;11.364;2022-09-12T13:38:00;25.60;90.20
53599;DHT22;39485;45.702;11.364;2022-09-12T13:40:36;25.50;90.20
53599;DHT22;39485;45.702;11.364;2022-09-12T13:43:12;25.50;90.20
53599;DHT22;39485;45.702;11.364;2022-09-12T13:45:44;25.50;90.10
53599;DHT22;39485;45.702;11.364;2022-09-12T13:48:22;25.50;90.20
53599;DHT22;39485;45.702;11.364;2022-09-12T13:50:56;25.50;90.20
53599;DHT22;39485;45.702;11.364;2022-09-12T13:53:29;25.40;90.10
53599;DHT22;39485;45.702;11.364;2022-09-12T13:55:58;25.40;90.00
53599;DHT22;39485;45.702;11.364;2022-09-12T13:58:27;25.30;90.00
53599;DHT22;39485;45.702;11.364;2022-09-12T14:06:23;25.30;90.20
53599;DHT22;39485;45.702;11.364;2022-09-12T14:08:50;25.30;90.20
53599;DHT22;39485;45.702;11.364;2022-09-12T14:11:24;25.20;90.10
53599;DHT22;39485;45.702;11.364;2022-09-12T14:13:51;25.20;90.10
53599;DHT22;39485;45.702;11.364;2022-09-12T14:16:18;25.20;90.10
53599;DHT22;39485;45.702;11.364;2022-09-12T14:18:46;25.20;90.00
53599;DHT22;39485;45.702;11.364;2022-09-12T14:21:33;25.30;90.10
53599;DHT22;39485;45.702;11.364;2022-09-12T14:24:00;25.30;90.00
53599;DHT22;39485;45.702;11.364;2022-09-12T14:26:33;25.30;89.70
53599;DHT22;39485;45.702;11.364;2022-09-12T14:29:01;25.30;89.40
53599;DHT22;39485;45.702;11.364;2022-09-12T14:31:35;25.30;89.20
53599;DHT22;39485;45.702;11.364;2022-09-12T14:36:48;25.30;88.40
53599;DHT22;39485;45.702;11.364;2022-09-12T14:39:41;25.30;88.20
53599;DHT22;39485;45.702;11.364;2022-09-12T14:42:20;25.30;88.30
53599;DHT22;39485;45.702;11.364;2022-09-12T14:44:57;25.30;88.30
53599;DHT22;39485;45.702;11.364;2022-09-12T14:47:27;25.30;88.10
53599;DHT22;39485;45.702;11.364;2022-09-12T14:49:55;25.30;88.30
53599;DHT22;39485;45.702;11.364;2022-09-12T14:52:33;25.40;88.00
53599;DHT22;39485;45.702;11.364;2022-09-12T14:57:45;25.30;87.60
53599;DHT22;39485;45.702;11.364;2022-09-12T15:02:39;25.30;87.70
53599;DHT22;39485;45.702;11.364;2022-09-12T15:10:35;25.30;87.60
53599;DHT22;39485;45.702;11.364;2022-09-12T15:15:31;25.40;87.90
53599;DHT22;39485;45.702;11.364;2022-09-12T15:17:57;25.30;87.80
53599;DHT22;39485;45.702;11.364;2022-09-12T15:20:23;25.30;87.70
53599;DHT22;39485;45.702;11.364;2022-09-12T15:22:49;25.40;87.70
53599;DHT22;39485;45.702;11.364;2022-09-12T15:25:16;25.30;87.70
53599;DHT22;39485;45.702;11.364;2022-09-12T15:27:43;25.30;87.80
53599;DHT22;39485;45.702;11.364;2022-09-12T15:30:09;25.30;87.70
53599;DHT22;39485;45.702;11.364;2022-09-12T15:32:37;25.30;87.50
53599;DHT22;39485;45.702;11.364;2022-09-12T15:35:19;25.30;87.70
53599;DHT22;39485;45.702;11.364;2022-09-12T15:37:48;25.30;87.70
53599;DHT22;39485;45.702;11.364;2022-09-12T15:40:13;25.30;87.70
53599;DHT22;39485;45.702;11.364;2022-09-12T15:42:39;25.30;87.80
53599;DHT22;39485;45.702;11.364;2022-09-12T15:45:18;25.30;87.70
53599;DHT22;39485;45.702;11.364;2022-09-12T15:47:44;25.20;87.70
53599;DHT22;39485;45.702;11.364;2022-09-12T15:50:10;25.20;87.80
53599;DHT22;39485;45.702;11.364;2022-09-12T15:52:36;25.20;87.80
53599;DHT22;39485;45.702;11.364;2022-09-12T15:55:03;25.20;87.20
53599;DHT22;39485;45.702;11.364;2022-09-12T15:57:29;25.20;85.70
53599;DHT22;39485;45.702;11.364;2022-09-12T15:59:54;25.20;85.20
53599;DHT22;39485;45.702;11.364;2022-09-12T16:02:20;25.20;85.10
53599;DHT22;39485;45.702;11.364;2022-09-12T16:04:46;25.20;84.90
53599;DHT22;39485;45.702;11.364;2022-09-12T16:07:12;25.10;84.70
53599;DHT22;39485;45.702;11.364;2022-09-12T16:09:38;25.10;84.70
53599;DHT22;39485;45.702;11.364;2022-09-12T16:12:04;25.10;84.60
53599;DHT22;39485;45.702;11.364;2022-09-12T16:14:30;25.00;84.70
53599;DHT22;39485;45.702;11.364;2022-09-12T16:16:55;25.00;84.90
53599;DHT22;39485;45.702;11.364;2022-09-12T16:19:21;25.00;85.80
53599;DHT22;39485;45.702;11.364;2022-09-12T16:21:47;25.00;85.50
53599;DHT22;39485;45.702;11.364;2022-09-12T16:24:13;24.90;85.90
53599;DHT22;39485;45.702;11.364;2022-09-12T16:26:38;24.90;86.70
53599;DHT22;39485;45.702;11.364;2022-09-12T16:29:04;24.90;87.00
53599;DHT22;39485;45.702;11.364;2022-09-12T16:31:30;24.90;87.40
53599;DHT22;39485;45.702;11.364;2022-09-12T16:33:55;24.90;87.90
53599;DHT22;39485;45.702;11.364;2022-09-12T16:36:21;24.80;88.40
53599;DHT22;39485;45.702;11.364;2022-09-12T16:38:49;24.80;89.40
53599;DHT22;39485;45.702;11.364;2022-09-12T16:41:16;24.80;90.30
53599;DHT22;39485;45.702;11.364;2022-09-12T16:43:42;24.80;90.80
53599;DHT22;39485;45.702;11.364;2022-09-12T16:46:16;24.70;91.30
53599;DHT22;39485;45.702;11.364;2022-09-12T16:48:44;24.60;91.90
53599;DHT22;39485;45.702;11.364;2022-09-12T16:51:11;24.60;92.50
53599;DHT22;39485;45.702;11.364;2022-09-12T16:53:38;24.40;93.00
53599;DHT22;39485;45.702;11.364;2022-09-12T16:56:05;24.30;93.60
53599;DHT22;39485;45.702;11.364;2022-09-12T16:58:38;24.20;94.20
53599;DHT22;39485;45.702;11.364;2022-09-12T17:01:18;24.00;94.90
53599;DHT22;39485;45.702;11.364;2022-09-12T17:03:44;23.80;95.40
53599;DHT22;39485;45.702;11.364;2022-09-12T17:06:13;23.60;95.80
53599;DHT22;39485;45.702;11.364;2022-09-12T17:08:42;23.50;96.40
53599;DHT22;39485;45.702;11.364;2022-09-12T17:11:16;23.30;96.80
53599;DHT22;39485;45.702;11.364;2022-09-12T17:13:52;23.20;97.30
53599;DHT22;39485;45.702;11.364;2022-09-12T17:16:18;23.10;97.80
53599;DHT22;39485;45.702;11.364;2022-09-12T17:18:45;23.00;98.40
53599;DHT22;39485;45.702;11.364;2022-09-12T17:21:11;22.90;99.00
53599;DHT22;39485;45.702;11.364;2022-09-12T17:23:38;22.80;99.60
53599;DHT22;39485;45.702;11.364;2022-09-12T17:26:04;22.70;99.90
53599;DHT22;39485;45.702;11.364;2022-09-12T17:28:31;22.60;99.90
53599;DHT22;39485;45.702;11.364;2022-09-12T17:31:01;22.60;99.90
53599;DHT22;39485;45.702;11.364;2022-09-12T17:33:28;22.50;99.90
53599;DHT22;39485;45.702;11.364;2022-09-12T17:35:54;22.40;99.90
53599;DHT22;39485;45.702;11.364;2022-09-12T17:38:24;22.30;99.90
53599;DHT22;39485;45.702;11.364;2022-09-12T17:40:50;22.30;99.90
53599;DHT22;39485;45.702;11.364;2022-09-12T17:43:16;22.20;99.90
53599;DHT22;39485;45.702;11.364;2022-09-12T17:45:41;22.10;99.90
53599;DHT22;39485;45.702;11.364;2022-09-12T17:48:09;22.10;99.90
53599;DHT22;39485;45.702;11.364;2022-09-12T17:50:39;22.00;99.90
53599;DHT22;39485;45.702;11.364;2022-09-12T17:53:06;21.90;99.90
53599;DHT22;39485;45.702;11.364;2022-09-12T17:55:36;21.80;99.90
53599;DHT22;39485;45.702;11.364;2022-09-12T17:58:02;21.80;99.90
53599;DHT22;39485;45.702;11.364;2022-09-12T18:00:28;21.70;99.90
53599;DHT22;39485;45.702;11.364;2022-09-12T18:03:14;21.70;99.90
53599;DHT22;39485;45.702;11.364;2022-09-12T18:05:54;21.60;99.90
53599;DHT22;39485;45.702;11.364;2022-09-12T18:08:20;21.60;99.90
53599;DHT22;39485;45.702;11.364;2022-09-12T18:10:46;21.50;99.90
53599;DHT22;39485;45.702;11.364;2022-09-12T18:13:12;21.50;99.90
53599;DHT22;39485;45.702;11.364;2022-09-12T18:15:38;21.40;99.90
53599;DHT22;39485;45.702;11.364;2022-09-12T18:18:04;21.40;99.90
53599;DHT22;39485;45.702;11.364;2022-09-12T18:20:31;21.30;99.90
53599;DHT22;39485;45.702;11.364;2022-09-12T18:22:57;21.30;99.90
53599;DHT22;39485;45.702;11.364;2022-09-12T18:25:23;21.20;99.90
53599;DHT22;39485;45.702;11.364;2022-09-12T18:27:50;21.20;99.90
53599;DHT22;39485;45.702;11.364;2022-09-12T18:30:16;21.10;99.90
53599;DHT22;39485;45.702;11.364;2022-09-12T18:32:45;21.10;99.90
53599;DHT22;39485;45.702;11.364;2022-09-12T18:35:11;21.00;99.90
53599;DHT22;39485;45.702;11.364;2022-09-12T18:37:39;21.00;99.90
53599;DHT22;39485;45.702;11.364;2022-09-12T18:40:05;20.90;99.90
53599;DHT22;39485;45.702;11.364;2022-09-12T18:42:31;20.90;99.90
53599;DHT22;39485;45.702;11.364;2022-09-12T18:44:57;20.80;99.90
53599;DHT22;39485;45.702;11.364;2022-09-12T18:47:22;20.80;99.90
53599;DHT22;39485;45.702;11.364;2022-09-12T18:49:48;20.80;99.90
53599;DHT22;39485;45.702;11.364;2022-09-12T18:52:14;20.70;99.90
53599;DHT22;39485;45.702;11.364;2022-09-12T18:54:39;20.70;99.90
53599;DHT22;39485;45.702;11.364;2022-09-12T18:57:05;20.60;99.90
53599;DHT22;39485;45.702;11.364;2022-09-12T18:59:31;20.60;99.90
53599;DHT22;39485;45.702;11.364;2022-09-12T19:01:56;20.50;99.90
53599;DHT22;39485;45.702;11.364;2022-09-12T19:04:22;20.50;99.90
53599;DHT22;39485;45.702;11.364;2022-09-12T19:06:48;20.50;99.90
53599;DHT22;39485;45.702;11.364;2022-09-12T19:09:16;20.40;99.90
53599;DHT22;39485;45.702;11.364;2022-09-12T19:11:44;20.40;99.90
53599;DHT22;39485;45.702;11.364;2022-09-12T19:14:18;20.40;99.90
53599;DHT22;39485;45.702;11.364;2022-09-12T19:16:44;20.40;99.90
53599;DHT22;39485;45.702;11.364;2022-09-12T19:19:10;20.40;99.90
53599;DHT22;39485;45.702;11.364;2022-09-12T19:21:36;20.30;99.90
53599;DHT22;39485;45.702;11.364;2022-09-12T19:24:06;20.30;99.90
53599;DHT22;39485;45.702;11.364;2022-09-12T19:26:34;20.30;99.90
53599;DHT22;39485;45.702;11.364;2022-09-12T19:29:00;20.30;99.90
53599;DHT22;39485;45.702;11.364;2022-09-12T19:31:27;20.30;99.90
53599;DHT22;39485;45.702;11.364;2022-09-12T19:33:58;20.30;99.90
53599;DHT22;39485;45.702;11.364;2022-09-12T19:36:25;20.30;99.90
53599;DHT22;39485;45.702;11.364;2022-09-12T19:38:50;20.20;99.90
53599;DHT22;39485;45.702;11.364;2022-09-12T19:41:16;20.20;99.90
53599;DHT22;39485;45.702;11.364;2022-09-12T19:43:43;20.20;99.90
53599;DHT22;39485;45.702;11.364;2022-09-12T19:46:15;20.10;99.90
53599;DHT22;39485;45.702;11.364;2022-09-12T19:48:41;20.10;99.90
53599;DHT22;39485;45.702;11.364;2022-09-12T19:51:07;20.10;99.90
53599;DHT22;39485;45.702;11.364;2022-09-12T19:53:33;20.10;99.90
53599;DHT22;39485;45.702;11.364;2022-09-12T19:56:00;20.00;99.90
53599;DHT22;39485;45.702;11.364;2022-09-12T19:58:27;20.00;99.90
53599;DHT22;39485;45.702;11.364;2022-09-12T20:00:53;20.00;99.90
53599;DHT22;39485;45.702;11.364;2022-09-12T20:03:20;20.00;99.90
53599;DHT22;39485;45.702;11.364;2022-09-12T20:05:46;19.90;99.90
53599;DHT22;39485;45.702;11.364;2022-09-12T20:08:12;19.90;99.90
53599;DHT22;39485;45.702;11.364;2022-09-12T20:10:37;19.90;99.90
53599;DHT22;39485;45.702;11.364;2022-09-12T20:13:03;19.80;99.90
53599;DHT22;39485;45.702;11.364;2022-09-12T20:15:29;19.70;99.90
53599;DHT22;39485;45.702;11.364;2022-09-12T20:17:56;19.60;99.90
53599;DHT22;39485;45.702;11.364;2022-09-12T20:20:22;19.60;99.90
53599;DHT22;39485;45.702;11.364;2022-09-12T20:22:50;19.60;99.90
53599;DHT22;39485;45.702;11.364;2022-09-12T20:25:16;19.60;99.90
53599;DHT22;39485;45.702;11.364;2022-09-12T20:27:44;19.60;99.90
53599;DHT22;39485;45.702;11.364;2022-09-12T20:30:10;19.50;99.90
53599;DHT22;39485;45.702;11.364;2022-09-12T20:32:39;19.50;99.90
53599;DHT22;39485;45.702;11.364;2022-09-12T20:35:05;19.50;99.90
53599;DHT22;39485;45.702;11.364;2022-09-12T20:37:31;19.40;99.90
53599;DHT22;39485;45.702;11.364;2022-09-12T20:39:56;19.30;99.90
53599;DHT22;39485;45.702;11.364;2022-09-12T20:42:22;19.30;99.90
53599;DHT22;39485;45.702;11.364;2022-09-12T20:44:48;19.30;99.90
53599;DHT22;39485;45.702;11.364;2022-09-12T20:47:13;19.30;99.90
53599;DHT22;39485;45.702;11.364;2022-09-12T20:49:39;19.20;99.90
53599;DHT22;39485;45.702;11.364;2022-09-12T20:52:05;19.30;99.90
53599;DHT22;39485;45.702;11.364;2022-09-12T20:54:31;19.20;99.90
53599;DHT22;39485;45.702;11.364;2022-09-12T20:56:56;19.30;99.90
53599;DHT22;39485;45.702;11.364;2022-09-12T20:59:22;19.30;99.90
53599;DHT22;39485;45.702;11.364;2022-09-12T21:01:48;19.30;99.90
53599;DHT22;39485;45.702;11.364;2022-09-12T21:04:13;19.20;99.90
53599;DHT22;39485;45.702;11.364;2022-09-12T21:06:39;19.20;99.90
53599;DHT22;39485;45.702;11.364;2022-09-12T21:09:05;19.20;99.90
53599;DHT22;39485;45.702;11.364;2022-09-12T21:11:32;19.20;99.90
53599;DHT22;39485;45.702;11.364;2022-09-12T21:13:57;19.20;99.90
53599;DHT22;39485;45.702;11.364;2022-09-12T21:16:23;19.20;99.90
53599;DHT22;39485;45.702;11.364;2022-09-12T21:18:54;19.20;99.90
53599;DHT22;39485;45.702;11.364;2022-09-12T21:21:20;19.20;99.90
53599;DHT22;39485;45.702;11.364;2022-09-12T21:23:46;19.20;99.90
53599;DHT22;39485;45.702;11.364;2022-09-12T21:26:11;19.20;99.90
53599;DHT22;39485;45.702;11.364;2022-09-12T21:28:37;19.10;99.90
53599;DHT22;39485;45.702;11.364;2022-09-12T21:31:03;19.10;99.90
53599;DHT22;39485;45.702;11.364;2022-09-12T21:33:29;19.10;99.90
53599;DHT22;39485;45.702;11.364;2022-09-12T21:35:54;19.00;99.90
53599;DHT22;39485;45.702;11.364;2022-09-12T21:38:25;19.00;99.90
53599;DHT22;39485;45.702;11.364;2022-09-12T21:40:50;19.00;99.90
53599;DHT22;39485;45.702;11.364;2022-09-12T21:43:16;19.00;99.90
53599;DHT22;39485;45.702;11.364;2022-09-12T21:45:41;18.90;99.90
53599;DHT22;39485;45.702;11.364;2022-09-12T21:48:07;18.90;99.90
53599;DHT22;39485;45.702;11.364;2022-09-12T21:50:33;18.90;99.90
53599;DHT22;39485;45.702;11.364;2022-09-12T21:52:59;18.90;99.90
53599;DHT22;39485;45.702;11.364;2022-09-12T21:55:24;18.80;99.90
53599;DHT22;39485;45.702;11.364;2022-09-12T21:57:52;18.80;99.90
53599;DHT22;39485;45.702;11.364;2022-09-12T22:00:18;18.80;99.90
53599;DHT22;39485;45.702;11.364;2022-09-12T22:02:44;18.80;99.90
53599;DHT22;39485;45.702;11.364;2022-09-12T22:05:10;18.80;99.90
53599;DHT22;39485;45.702;11.364;2022-09-12T22:07:36;18.70;99.90
53599;DHT22;39485;45.702;11.364;2022-09-12T22:10:03;18.80;99.90
53599;DHT22;39485;45.702;11.364;2022-09-12T22:12:29;18.70;99.90
53599;DHT22;39485;45.702;11.364;2022-09-12T22:14:55;18.70;99.90
53599;DHT22;39485;45.702;11.364;2022-09-12T22:17:22;18.70;99.90
53599;DHT22;39485;45.702;11.364;2022-09-12T22:19:48;18.60;99.90
53599;DHT22;39485;45.702;11.364;2022-09-12T22:22:14;18.70;99.90
53599;DHT22;39485;45.702;11.364;2022-09-12T22:24:58;18.60;99.90
53599;DHT22;39485;45.702;11.364;2022-09-12T22:27:24;18.60;99.90
53599;DHT22;39485;45.702;11.364;2022-09-12T22:29:50;18.60;99.90
53599;DHT22;39485;45.702;11.364;2022-09-12T22:32:17;18.60;99.90
53599;DHT22;39485;45.702;11.364;2022-09-12T22:34:44;18.50;99.90
53599;DHT22;39485;45.702;11.364;2022-09-12T22:37:10;18.50;99.90
53599;DHT22;39485;45.702;11.364;2022-09-12T22:39:39;18.50;99.90
53599;DHT22;39485;45.702;11.364;2022-09-12T22:42:05;18.50;99.90
53599;DHT22;39485;45.702;11.364;2022-09-12T22:44:32;18.50;99.90
53599;DHT22;39485;45.702;11.364;2022-09-12T22:46:58;18.50;99.90
53599;DHT22;39485;45.702;11.364;2022-09-12T22:49:24;18.50;99.90
53599;DHT22;39485;45.702;11.364;2022-09-12T22:51:49;18.50;99.90
53599;DHT22;39485;45.702;11.364;2022-09-12T22:54:15;18.40;99.90
53599;DHT22;39485;45.702;11.364;2022-09-12T22:56:41;18.40;99.90
53599;DHT22;39485;45.702;11.364;2022-09-12T22:59:07;18.40;99.90
53599;DHT22;39485;45.702;11.364;2022-09-12T23:01:33;18.40;99.90
53599;DHT22;39485;45.702;11.364;2022-09-12T23:04:00;18.40;99.90
53599;DHT22;39485;45.702;11.364;2022-09-12T23:06:25;18.40;99.90
53599;DHT22;39485;45.702;11.364;2022-09-12T23:08:51;18.30;99.90
53599;DHT22;39485;45.702;11.364;2022-09-12T23:11:18;18.30;99.90
53599;DHT22;39485;45.702;11.364;2022-09-12T23:13:46;18.30;99.90
53599;DHT22;39485;45.702;11.364;2022-09-12T23:16:20;18.30;99.90
53599;DHT22;39485;45.702;11.364;2022-09-12T23:18:46;18.30;99.90
53599;DHT22;39485;45.702;11.364;2022-09-12T23:21:14;18.30;99.90
53599;DHT22;39485;45.702;11.364;2022-09-12T23:23:40;18.30;99.90
53599;DHT22;39485;45.702;11.364;2022-09-12T23:26:15;18.30;99.90
53599;DHT22;39485;45.702;11.364;2022-09-12T23:28:47;18.30;99.90
53599;DHT22;39485;45.702;11.364;2022-09-12T23:31:14;18.30;99.90
53599;DHT22;39485;45.702;11.364;2022-09-12T23:33:41;18.30;99.90
